Plymouth, California
Current Conditions -  °F | °C
As of 1:55 AM on Monday 22 Dec 2014 (Local Time) from KPVF Reporting Station
Clear Clear  
Wind Chill: 12°   Ceiling: Unl
Heat Index: 12°   Visibility: 10mi
Dew Point:   Wind: 7mph
Humidity: 72%   Direction: 30°NNE
Pressure: 30.27"   Gusts: NA
Location:  38.48°N, 120.84°W
Report Text: KPVF 220955Z AUTO 03006KT 10SM CLR 12/07 A3027 RMK AO1
Loading
Personal Weather Stations






























Interactive Weather Map New forecast layout! Learn more

10-Day Weather Forecast

Advertisements
Track Severe Weather on mobile